Time;durP1;ratioP1;P1;durP2;ratioP2;P2;SDS_P1;SDS_P2;PMS_P1;PMS_P2;Temp;Humidity;BMP_temperature;BMP_pressure;BME280_temperature;BME280_humidity;BME280_pressure;Samples;Min_cycle;Max_cycle;Signal;HPM_P1;HPM_P2
2023/11/29 00:01:07;;;;;;;22.27;20.33;;;0.20;99.90;;;;;;4941183;29;20876;-78
2023/11/29 00:03:34;;;;;;;22.57;20.57;;;0.20;99.90;;;;;;4944087;29;20469;-78
2023/11/29 00:06:02;;;;;;;22.63;20.57;;;0.20;99.90;;;;;;4923099;29;20829;-78
2023/11/29 00:08:31;;;;;;;22.60;20.60;;;0.20;99.90;;;;;;4926411;29;20459;-78
2023/11/29 00:10:58;;;;;;;23.33;21.33;;;0.30;99.90;;;;;;4943340;29;20884;-78
2023/11/29 00:13:25;;;;;;;21.53;19.63;;;0.40;99.90;;;;;;4944604;29;20470;-77
2023/11/29 00:15:51;;;;;;;23.07;20.83;;;0.30;99.90;;;;;;4945275;29;20442;-77
2023/11/29 00:18:18;;;;;;;22.30;20.30;;;0.40;99.90;;;;;;4924380;29;20522;-78
2023/11/29 00:20:45;;;;;;;23.13;21.03;;;0.40;99.90;;;;;;4945453;29;20436;-78
2023/11/29 00:23:12;;;;;;;21.77;19.87;;;0.40;99.90;;;;;;4921998;29;20512;-78
2023/11/29 00:25:40;;;;;;;23.57;21.33;;;0.50;99.90;;;;;;4942802;29;20444;-78
2023/11/29 00:28:07;;;;;;;22.00;20.10;;;0.50;99.90;;;;;;4926684;29;20452;-78
2023/11/29 00:30:34;;;;;;;23.47;21.27;;;0.40;99.90;;;;;;4927271;29;20463;-78
2023/11/29 00:33:01;;;;;;;21.80;19.87;;;0.40;99.90;;;;;;4928008;29;20915;-77
2023/11/29 00:35:27;;;;;;;22.17;20.27;;;0.40;99.90;;;;;;4921082;29;20453;-77
2023/11/29 00:37:54;;;;;;;23.40;21.40;;;0.40;99.90;;;;;;4924872;29;20526;-78
2023/11/29 00:40:21;;;;;;;24.63;22.43;;;0.40;99.90;;;;;;4921233;29;20453;-77
2023/11/29 00:42:49;;;;;;;24.33;22.13;;;0.30;99.90;;;;;;4925170;29;20459;-78
2023/11/29 00:45:16;;;;;;;22.90;20.90;;;0.30;99.90;;;;;;4943218;29;20487;-78
2023/11/29 00:47:43;;;;;;;22.10;20.30;;;0.20;99.90;;;;;;4926535;29;20476;-77
2023/11/29 00:50:10;;;;;;;23.93;21.77;;;0.20;99.90;;;;;;4944545;29;20440;-77
2023/11/29 00:52:37;;;;;;;24.67;22.37;;;0.30;99.90;;;;;;4925645;29;20461;-77
2023/11/29 00:55:04;;;;;;;24.20;21.87;;;0.40;99.90;;;;;;4925468;29;20517;-78
2023/11/29 00:57:31;;;;;;;23.97;21.80;;;0.40;99.90;;;;;;4921017;29;20487;-79
2023/11/29 00:59:59;;;;;;;23.70;21.57;;;0.40;99.90;;;;;;4923549;29;20446;-78
2023/11/29 01:02:28;;;;;;;23.60;21.40;;;0.40;99.90;;;;;;4940733;29;20438;-78
2023/11/29 01:04:54;;;;;;;23.40;21.20;;;0.40;99.90;;;;;;4925832;29;20504;-78
2023/11/29 01:07:21;;;;;;;23.87;21.67;;;0.50;99.90;;;;;;4926580;29;20470;-78
2023/11/29 01:09:48;;;;;;;24.03;21.83;;;0.50;99.90;;;;;;4926188;29;20451;-77
2023/11/29 01:12:16;;;;;;;23.03;20.93;;;0.60;99.90;;;;;;4941806;29;20497;-78
2023/11/29 01:14:42;;;;;;;23.87;21.67;;;0.60;99.90;;;;;;4919740;29;20579;-78
2023/11/29 01:17:11;;;;;;;23.30;21.03;;;0.60;99.90;;;;;;4936993;29;20484;-77
2023/11/29 01:19:37;;;;;;;24.37;22.03;;;0.70;99.90;;;;;;4925731;29;20446;-78
2023/11/29 01:22:05;;;;;;;22.33;20.33;;;0.70;99.90;;;;;;4926950;29;20868;-78
2023/11/29 01:24:32;;;;;;;21.67;19.87;;;0.70;99.90;;;;;;4920282;29;20536;-78
2023/11/29 01:26:59;;;;;;;22.23;20.13;;;0.70;99.90;;;;;;4927017;29;20460;-78
2023/11/29 01:29:25;;;;;;;22.67;20.50;;;0.70;99.90;;;;;;4920168;29;20980;-78
2023/11/29 01:31:52;;;;;;;21.20;19.47;;;0.70;99.90;;;;;;4923194;29;20456;-78
2023/11/29 01:34:21;;;;;;;21.80;20.00;;;0.80;99.90;;;;;;4937731;29;20460;-78
2023/11/29 01:36:47;;;;;;;20.40;18.67;;;0.80;99.90;;;;;;4924545;29;20986;-78
2023/11/29 01:39:16;;;;;;;20.93;19.13;;;0.80;99.90;;;;;;4946774;28;20877;-78
2023/11/29 01:41:43;;;;;;;22.23;19.73;;;0.80;99.90;;;;;;4926604;29;20530;-78
2023/11/29 01:44:10;;;;;;;21.10;19.30;;;0.90;99.90;;;;;;4943311;29;20990;-78
2023/11/29 01:46:37;;;;;;;20.20;18.27;;;0.90;99.90;;;;;;4922097;29;20457;-78
2023/11/29 01:49:05;;;;;;;21.00;19.23;;;0.90;99.90;;;;;;4943030;29;20860;-78
2023/11/29 01:51:33;;;;;;;19.70;18.10;;;0.90;99.90;;;;;;4937136;29;20529;-78
2023/11/29 01:54:01;;;;;;;20.63;18.70;;;0.80;99.90;;;;;;4923244;29;20477;-78
2023/11/29 01:56:28;;;;;;;19.70;18.00;;;0.80;99.90;;;;;;4924616;29;20453;-77
2023/11/29 01:58:55;;;;;;;19.50;17.83;;;0.70;99.90;;;;;;4921807;29;20483;-78
2023/11/29 02:01:22;;;;;;;19.27;17.70;;;0.70;99.90;;;;;;4943305;29;20461;-79
2023/11/29 02:03:48;;;;;;;19.60;17.97;;;0.60;99.90;;;;;;4938003;29;20474;-78
2023/11/29 02:06:15;;;;;;;20.20;18.50;;;0.50;99.90;;;;;;4926707;29;20443;-77
2023/11/29 02:08:43;;;;;;;20.47;18.77;;;0.50;99.90;;;;;;4921300;29;20208;-78
2023/11/29 02:11:14;;;;;;;19.90;18.27;;;0.40;99.90;;;;;;4924014;29;20455;-78
2023/11/29 02:13:41;;;;;;;19.13;17.50;;;0.40;99.90;;;;;;4924839;29;20476;-78
2023/11/29 02:16:08;;;;;;;18.83;17.23;;;0.30;99.90;;;;;;4925095;29;20461;-78
2023/11/29 02:18:35;;;;;;;19.77;18.07;;;0.30;99.90;;;;;;4922494;29;20475;-77
2023/11/29 02:21:02;;;;;;;18.87;17.20;;;0.20;99.90;;;;;;4943725;29;20453;-77
2023/11/29 02:23:38;;;;;;;19.53;17.83;;;0.20;99.90;;;;;;4919158;29;20540;-77
2023/11/29 02:26:07;;;;;;;19.17;17.57;;;0.20;99.90;;;;;;4921437;29;20451;-78
2023/11/29 02:28:34;;;;;;;20.13;18.43;;;0.20;99.90;;;;;;4922092;29;20454;-78
2023/11/29 02:31:02;;;;;;;19.63;18.03;;;0.10;99.90;;;;;;4925010;29;20450;-78
2023/11/29 02:33:29;;;;;;;18.80;17.17;;;0.10;99.90;;;;;;4925928;29;20526;-77
2023/11/29 02:35:55;;;;;;;19.63;17.97;;;0.10;99.90;;;;;;4921809;29;20447;-78
2023/11/29 02:38:22;;;;;;;19.30;17.70;;;0.00;99.90;;;;;;4939903;29;20517;-78
2023/11/29 02:40:49;;;;;;;19.00;17.50;;;0.00;99.90;;;;;;4921752;29;20455;-79
2023/11/29 02:43:17;;;;;;;19.73;17.93;;;0.00;99.90;;;;;;4920540;29;20464;-78
2023/11/29 02:45:44;;;;;;;20.37;18.57;;;0.00;99.90;;;;;;4923954;29;20487;-78
2023/11/29 02:48:11;;;;;;;19.53;17.83;;;0.00;99.90;;;;;;4941516;29;20440;-78
2023/11/29 02:50:38;;;;;;;19.87;18.27;;;0.00;99.90;;;;;;4926219;29;20482;-78
2023/11/29 02:53:04;;;;;;;20.03;18.17;;;-0.10;99.90;;;;;;4921486;29;20474;-78
2023/11/29 02:55:31;;;;;;;20.30;18.50;;;-0.10;99.90;;;;;;4939311;29;20806;-77
2023/11/29 02:57:58;;;;;;;19.80;18.20;;;-0.10;99.90;;;;;;4923815;29;21006;-78
2023/11/29 03:00:26;;;;;;;21.53;19.60;;;-0.10;99.90;;;;;;4939877;29;20444;-78
2023/11/29 03:02:53;;;;;;;20.13;18.37;;;-0.10;99.90;;;;;;4920281;29;20994;-78
2023/11/29 03:05:20;;;;;;;21.00;19.20;;;-0.10;99.90;;;;;;4920763;29;20536;-78
2023/11/29 03:07:47;;;;;;;20.40;18.60;;;-0.10;99.90;;;;;;4924426;29;20482;-78
2023/11/29 03:10:15;;;;;;;20.93;19.03;;;-0.20;99.90;;;;;;4927111;29;20460;-77
2023/11/29 03:12:41;;;;;;;20.77;18.97;;;-0.20;99.90;;;;;;4918753;29;20515;-78
2023/11/29 03:15:10;;;;;;;20.20;18.47;;;-0.20;99.90;;;;;;4921225;29;20464;-78
2023/11/29 03:17:38;;;;;;;19.87;18.10;;;-0.20;99.90;;;;;;4940025;29;20439;-77
2023/11/29 03:20:08;;;;;;;20.70;18.73;;;-0.20;99.90;;;;;;4923940;29;20455;-77
2023/11/29 03:22:35;;;;;;;20.03;18.33;;;-0.30;99.90;;;;;;4942479;29;20436;-78
2023/11/29 03:25:03;;;;;;;21.77;19.90;;;-0.30;99.90;;;;;;4921503;29;20526;-77
2023/11/29 03:27:30;;;;;;;21.23;19.43;;;-0.30;99.90;;;;;;4922169;29;20517;-78
2023/11/29 03:29:56;;;;;;;21.00;19.10;;;-0.40;99.90;;;;;;4921794;29;20447;-77
2023/11/29 03:32:26;;;;;;;20.47;18.57;;;-0.40;99.90;;;;;;4936624;29;20454;-77
2023/11/29 03:34:54;;;;;;;20.43;18.73;;;-0.40;99.90;;;;;;4917789;29;20479;-78
2023/11/29 03:37:20;;;;;;;21.70;19.80;;;-0.40;99.90;;;;;;4925432;29;20459;-78
2023/11/29 03:39:47;;;;;;;20.13;18.33;;;-0.40;99.90;;;;;;4924386;29;20492;-77
2023/11/29 03:42:14;;;;;;;20.40;18.63;;;-0.40;99.90;;;;;;4943067;29;20443;-78
2023/11/29 03:44:41;;;;;;;19.50;17.90;;;-0.40;99.90;;;;;;4925845;29;21005;-78
2023/11/29 03:47:08;;;;;;;21.60;19.60;;;-0.40;99.90;;;;;;4925897;29;20451;-78
2023/11/29 03:49:34;;;;;;;19.90;18.20;;;-0.40;99.90;;;;;;4922414;29;20483;-77
2023/11/29 03:52:02;;;;;;;18.83;17.33;;;-0.30;99.90;;;;;;4923689;29;22693;-78
2023/11/29 03:54:28;;;;;;;19.63;17.93;;;-0.30;99.90;;;;;;4925790;29;20535;-78
2023/11/29 03:56:55;;;;;;;20.50;18.60;;;-0.30;99.90;;;;;;4915989;29;20861;-79
2023/11/29 03:59:22;;;;;;;19.57;17.87;;;-0.30;99.90;;;;;;4948634;28;20220;-78
2023/11/29 04:01:49;;;;;;;18.70;17.10;;;-0.30;99.90;;;;;;4922206;29;20463;-79
2023/11/29 04:04:15;;;;;;;19.97;18.27;;;-0.20;99.90;;;;;;4953223;29;20459;-78
2023/11/29 04:06:42;;;;;;;19.23;17.53;;;-0.20;99.90;;;;;;4951116;29;20542;-79
2023/11/29 04:09:10;;;;;;;19.03;17.47;;;-0.20;99.90;;;;;;4953778;28;20435;-78
2023/11/29 04:11:37;;;;;;;18.90;17.30;;;-0.10;99.90;;;;;;4947147;29;20440;-79
2023/11/29 04:14:04;;;;;;;19.37;17.67;;;0.00;99.90;;;;;;4960367;28;20475;-78
2023/11/29 04:16:31;;;;;;;19.83;18.13;;;0.00;99.90;;;;;;4942548;29;20506;-79
2023/11/29 04:18:58;;;;;;;19.50;17.70;;;0.00;99.90;;;;;;4922254;29;20476;-79
2023/11/29 04:21:28;;;;;;;19.27;17.67;;;0.10;99.90;;;;;;4943084;29;20509;-79
2023/11/29 04:23:55;;;;;;;19.57;17.77;;;0.10;99.90;;;;;;4927587;29;20468;-79
2023/11/29 04:26:25;;;;;;;20.03;18.27;;;0.10;99.90;;;;;;4921311;29;20551;-78
2023/11/29 04:28:52;;;;;;;20.03;18.27;;;0.10;99.90;;;;;;4940982;29;20786;-79
2023/11/29 04:31:19;;;;;;;21.43;19.33;;;0.10;99.90;;;;;;4941809;28;20525;-79
2023/11/29 04:33:46;;;;;;;19.53;17.73;;;0.10;99.90;;;;;;4924867;29;20463;-79
2023/11/29 04:36:13;;;;;;;19.27;17.57;;;0.10;99.90;;;;;;4924385;29;20463;-80
2023/11/29 04:38:40;;;;;;;19.60;17.80;;;0.10;99.90;;;;;;4924230;29;20481;-79
2023/11/29 04:41:08;;;;;;;18.90;17.30;;;0.10;99.90;;;;;;4925524;29;20445;-78
2023/11/29 04:43:36;;;;;;;19.27;17.67;;;0.00;99.90;;;;;;4929133;29;20482;-78
2023/11/29 04:46:03;;;;;;;19.20;17.40;;;0.00;99.90;;;;;;4922753;29;20467;-78
2023/11/29 04:48:30;;;;;;;18.80;17.20;;;0.00;99.90;;;;;;4938978;29;20450;-78
2023/11/29 04:50:57;;;;;;;19.40;17.73;;;0.00;99.90;;;;;;4942408;29;20448;-77
2023/11/29 04:53:24;;;;;;;21.73;19.77;;;-0.10;99.90;;;;;;4927037;29;20469;-77
2023/11/29 04:55:52;;;;;;;22.23;20.13;;;0.00;99.90;;;;;;4944594;28;20451;-79
2023/11/29 04:58:20;;;;;;;22.03;20.07;;;0.00;99.90;;;;;;4941202;29;20476;-78
2023/11/29 05:00:48;;;;;;;21.97;19.90;;;0.00;99.90;;;;;;4944656;29;20453;-77
2023/11/29 05:03:15;;;;;;;21.23;19.37;;;0.00;99.90;;;;;;4937880;28;20470;-78
2023/11/29 05:05:42;;;;;;;20.93;19.03;;;0.00;99.90;;;;;;4938286;29;20509;-77
2023/11/29 05:08:10;;;;;;;21.37;19.50;;;0.10;99.90;;;;;;4941041;29;20437;-77
2023/11/29 05:10:37;;;;;;;19.60;17.90;;;0.10;99.90;;;;;;4941858;29;20532;-77
2023/11/29 05:13:06;;;;;;;20.30;18.50;;;0.00;99.90;;;;;;4942826;29;20472;-77
2023/11/29 05:15:34;;;;;;;19.40;17.70;;;0.10;99.90;;;;;;4938923;29;20448;-78
2023/11/29 05:18:02;;;;;;;19.87;18.30;;;0.00;99.90;;;;;;4943838;29;20463;-77
2023/11/29 05:20:29;;;;;;;20.80;18.90;;;0.00;99.90;;;;;;4947332;28;20511;-78
2023/11/29 05:22:56;;;;;;;19.27;17.67;;;0.00;99.90;;;;;;4923218;29;20559;-78
2023/11/29 05:25:23;;;;;;;19.63;17.83;;;0.00;99.90;;;;;;4939599;29;20460;-78
2023/11/29 05:27:50;;;;;;;19.17;17.60;;;0.00;99.90;;;;;;4926614;29;20539;-77
2023/11/29 05:30:17;;;;;;;19.10;17.47;;;0.10;99.90;;;;;;4944219;29;21029;-78
2023/11/29 05:32:45;;;;;;;19.03;17.40;;;0.10;99.90;;;;;;4940743;29;20452;-78
2023/11/29 05:35:14;;;;;;;17.97;16.57;;;0.10;99.90;;;;;;4940957;29;20895;-77
2023/11/29 05:37:41;;;;;;;18.20;16.60;;;0.20;99.90;;;;;;4941036;29;20453;-77
2023/11/29 05:40:09;;;;;;;18.63;17.20;;;0.20;99.90;;;;;;4923704;29;20494;-77
2023/11/29 05:42:36;;;;;;;17.83;16.33;;;0.20;99.90;;;;;;4940381;29;20499;-77
2023/11/29 05:45:03;;;;;;;17.60;16.20;;;0.30;99.90;;;;;;4936193;29;20995;-79
2023/11/29 05:47:30;;;;;;;17.77;16.33;;;0.30;99.90;;;;;;4944762;29;20967;-77
2023/11/29 05:49:59;;;;;;;17.03;15.73;;;0.40;99.90;;;;;;4940363;29;20440;-77
2023/11/29 05:52:27;;;;;;;16.17;14.97;;;0.40;99.90;;;;;;4924436;29;20524;-77
2023/11/29 05:54:54;;;;;;;16.33;15.13;;;0.50;99.90;;;;;;4941638;29;21052;-78
2023/11/29 05:57:21;;;;;;;15.97;14.77;;;0.40;99.90;;;;;;4923806;29;20460;-78
2023/11/29 05:59:48;;;;;;;15.87;14.77;;;0.50;99.90;;;;;;4923647;29;20535;-77
2023/11/29 06:02:14;;;;;;;15.73;14.63;;;0.50;99.90;;;;;;4926169;29;20969;-77
2023/11/29 06:04:41;;;;;;;17.43;16.03;;;0.50;99.90;;;;;;4923748;29;20548;-77
2023/11/29 06:07:07;;;;;;;15.57;14.47;;;0.60;99.90;;;;;;4925465;29;20213;-76
2023/11/29 06:09:38;;;;;;;16.47;15.17;;;0.50;99.90;;;;;;4919461;29;20451;-77
2023/11/29 06:12:06;;;;;;;16.27;15.07;;;0.60;99.90;;;;;;4924101;29;20449;-78
2023/11/29 06:14:33;;;;;;;16.60;15.27;;;0.60;99.90;;;;;;4940965;29;20910;-78
2023/11/29 06:17:00;;;;;;;16.73;15.43;;;0.60;99.90;;;;;;4943938;28;21023;-79
2023/11/29 06:19:27;;;;;;;15.90;14.63;;;0.60;99.90;;;;;;4939843;29;20482;-79
2023/11/29 06:21:54;;;;;;;15.60;14.50;;;0.60;99.90;;;;;;4928505;29;20508;-78
2023/11/29 06:24:21;;;;;;;15.70;14.60;;;0.70;99.90;;;;;;4944133;29;20466;-78
2023/11/29 06:26:49;;;;;;;16.73;15.43;;;0.70;99.90;;;;;;4941459;29;20449;-78
2023/11/29 06:29:16;;;;;;;15.47;14.40;;;0.70;99.90;;;;;;4943930;29;20446;-79
2023/11/29 06:31:42;;;;;;;15.90;14.53;;;0.70;99.90;;;;;;4928400;29;20464;-79
2023/11/29 06:34:09;;;;;;;15.43;14.43;;;0.70;99.90;;;;;;4928543;29;20481;-80
2023/11/29 06:36:36;;;;;;;15.27;14.27;;;0.70;99.90;;;;;;4941671;29;20437;-78
2023/11/29 06:39:03;;;;;;;15.50;14.40;;;0.80;99.90;;;;;;4939061;29;20996;-79
2023/11/29 06:41:30;;;;;;;15.30;14.20;;;0.80;99.90;;;;;;4928467;29;20456;-79
2023/11/29 06:43:58;;;;;;;15.20;14.10;;;0.80;99.90;;;;;;4943325;29;20466;-79
2023/11/29 06:46:25;;;;;;;15.37;14.23;;;0.90;99.90;;;;;;4925219;29;20458;-78
2023/11/29 06:48:52;;;;;;;14.83;13.83;;;0.80;99.90;;;;;;4938919;29;20539;-78
2023/11/29 06:51:20;;;;;;;14.97;13.90;;;0.90;99.90;;;;;;4939703;29;20443;-78
2023/11/29 06:53:47;;;;;;;15.40;14.27;;;0.90;99.90;;;;;;4943058;29;20556;-78
2023/11/29 06:56:14;;;;;;;15.23;14.13;;;0.90;99.90;;;;;;4943572;29;20441;-78
2023/11/29 06:58:41;;;;;;;15.70;14.60;;;1.00;99.90;;;;;;4940087;29;20442;-78
2023/11/29 07:01:10;;;;;;;15.50;14.43;;;1.00;99.90;;;;;;4926612;29;20480;-78
2023/11/29 07:03:37;;;;;;;15.27;14.27;;;1.00;99.90;;;;;;4924436;29;20882;-77
2023/11/29 07:06:04;;;;;;;15.23;14.13;;;1.00;99.90;;;;;;4922604;29;20454;-79
2023/11/29 07:08:31;;;;;;;14.90;13.80;;;1.00;99.90;;;;;;4924505;29;20524;-78
2023/11/29 07:10:59;;;;;;;15.40;14.30;;;1.00;99.90;;;;;;4934734;29;20914;-78
2023/11/29 07:13:26;;;;;;;16.13;14.90;;;1.00;99.90;;;;;;4947386;29;20476;-78
2023/11/29 07:15:56;;;;;;;14.60;13.60;;;1.00;99.90;;;;;;4932333;29;20465;-78
2023/11/29 07:18:26;;;;;;;15.37;14.17;;;1.00;99.90;;;;;;4926628;29;20550;-78
2023/11/29 07:20:53;;;;;;;13.97;12.87;;;1.00;99.90;;;;;;4946729;29;20579;-78
2023/11/29 07:23:22;;;;;;;13.93;12.77;;;1.00;99.90;;;;;;4944845;29;20477;-79
2023/11/29 07:25:50;;;;;;;13.90;12.80;;;1.10;99.90;;;;;;4942740;29;20821;-78
2023/11/29 07:28:16;;;;;;;13.50;12.50;;;1.10;99.90;;;;;;4930071;29;20203;-78
2023/11/29 07:30:43;;;;;;;13.90;12.90;;;1.10;99.90;;;;;;4947053;28;20455;-78
2023/11/29 07:33:11;;;;;;;14.30;13.30;;;1.10;99.90;;;;;;4948156;29;21276;-78
2023/11/29 07:35:39;;;;;;;14.77;13.57;;;1.10;99.90;;;;;;4948734;28;20448;-78
2023/11/29 07:38:06;;;;;;;13.90;12.87;;;1.10;99.90;;;;;;4946111;28;20446;-78
2023/11/29 07:40:32;;;;;;;13.93;12.90;;;1.20;99.90;;;;;;4945873;29;20486;-78
2023/11/29 07:42:59;;;;;;;14.07;13.00;;;1.20;99.90;;;;;;4925755;29;20450;-78
2023/11/29 07:45:26;;;;;;;13.87;12.80;;;1.30;99.90;;;;;;4944839;28;20594;-79
2023/11/29 07:47:53;;;;;;;13.53;12.53;;;1.40;99.90;;;;;;4941215;29;20438;-79
2023/11/29 07:50:20;;;;;;;13.37;12.37;;;1.40;99.90;;;;;;4945106;29;20929;-78
2023/11/29 07:52:48;;;;;;;13.07;12.07;;;1.50;99.90;;;;;;4929079;29;20450;-78
2023/11/29 07:55:15;;;;;;;13.80;12.80;;;1.50;99.90;;;;;;4946924;28;20475;-78
2023/11/29 07:57:42;;;;;;;14.20;13.30;;;1.50;99.90;;;;;;4942278;29;20632;-78
2023/11/29 08:00:12;;;;;;;14.13;13.13;;;1.50;99.90;;;;;;4948228;29;20981;-78
2023/11/29 08:02:41;;;;;;;13.83;12.83;;;1.50;99.90;;;;;;4944132;29;20436;-79
2023/11/29 08:05:08;;;;;;;13.47;12.57;;;1.50;99.90;;;;;;4928178;29;20215;-79
2023/11/29 08:07:35;;;;;;;13.27;12.30;;;1.50;99.90;;;;;;4925738;29;20220;-79
2023/11/29 08:10:07;;;;;;;14.07;13.07;;;1.50;99.90;;;;;;4943857;29;21153;-78
2023/11/29 08:12:34;;;;;;;14.20;13.10;;;1.50;99.90;;;;;;4944492;29;20438;-78
2023/11/29 08:15:00;;;;;;;13.87;12.87;;;1.60;99.90;;;;;;4944518;28;20469;-78
2023/11/29 08:17:27;;;;;;;13.50;12.60;;;1.60;99.90;;;;;;4948627;29;20505;-78
2023/11/29 08:19:54;;;;;;;14.40;13.37;;;1.60;99.90;;;;;;4925484;29;20475;-79
2023/11/29 08:22:21;;;;;;;13.30;12.30;;;1.60;99.90;;;;;;4929184;29;20511;-78
2023/11/29 08:24:48;;;;;;;13.73;12.80;;;1.60;99.90;;;;;;4944468;28;20714;-78
2023/11/29 08:27:18;;;;;;;13.60;12.70;;;1.70;99.90;;;;;;4947208;29;20435;-78
2023/11/29 08:29:46;;;;;;;14.23;13.17;;;1.70;99.90;;;;;;4930567;29;20482;-78
2023/11/29 08:32:12;;;;;;;13.97;12.97;;;1.70;99.90;;;;;;4945460;29;20815;-78
2023/11/29 08:34:40;;;;;;;13.83;12.83;;;1.70;99.90;;;;;;4950894;29;20256;-79
2023/11/29 08:37:07;;;;;;;12.90;12.10;;;1.80;99.90;;;;;;4921204;29;20629;-79
2023/11/29 08:39:35;;;;;;;13.00;12.20;;;1.80;99.90;;;;;;4944263;28;20246;-79
2023/11/29 08:42:02;;;;;;;13.90;12.90;;;1.80;99.90;;;;;;4945850;29;20199;-79
2023/11/29 08:44:31;;;;;;;13.77;12.77;;;1.90;99.90;;;;;;4946780;29;20557;-79
2023/11/29 08:46:58;;;;;;;13.97;12.87;;;2.00;99.90;;;;;;4948060;29;20521;-78
2023/11/29 08:49:25;;;;;;;14.20;13.20;;;2.00;99.90;;;;;;4929832;29;20670;-78
2023/11/29 08:51:52;;;;;;;14.67;13.67;;;2.00;99.90;;;;;;4944662;29;20226;-78
2023/11/29 08:54:20;;;;;;;13.53;12.63;;;2.10;99.90;;;;;;4943528;29;20219;-79
2023/11/29 08:56:47;;;;;;;13.27;12.43;;;2.10;99.90;;;;;;4943806;29;20652;-79
2023/11/29 08:59:14;;;;;;;13.30;12.40;;;2.20;99.90;;;;;;4946425;29;20663;-78
2023/11/29 09:01:42;;;;;;;13.30;12.40;;;2.30;99.90;;;;;;4947337;29;20446;-79
2023/11/29 09:04:08;;;;;;;13.73;12.90;;;2.30;99.90;;;;;;4939757;29;20211;-79
2023/11/29 09:06:35;;;;;;;14.17;13.17;;;2.30;99.90;;;;;;4943442;29;20210;-78
2023/11/29 09:09:02;;;;;;;13.23;12.37;;;2.40;99.90;;;;;;4947377;29;20230;-80
2023/11/29 09:11:29;;;;;;;14.03;13.03;;;2.40;99.90;;;;;;4926914;29;20646;-80
2023/11/29 09:13:56;;;;;;;13.03;12.23;;;2.50;99.90;;;;;;4942648;29;20218;-80
2023/11/29 09:16:23;;;;;;;13.33;12.43;;;2.50;99.90;;;;;;4941127;29;20547;-79
2023/11/29 09:18:51;;;;;;;13.33;12.50;;;2.50;99.90;;;;;;4924922;29;20274;-79
2023/11/29 09:21:18;;;;;;;12.93;12.13;;;2.50;99.90;;;;;;4940511;29;20224;-79
2023/11/29 09:23:44;;;;;;;13.47;12.57;;;2.60;99.90;;;;;;4946171;29;20244;-79
2023/11/29 09:26:13;;;;;;;13.07;12.27;;;2.60;99.90;;;;;;4925387;29;20226;-79
2023/11/29 09:28:40;;;;;;;12.90;12.10;;;2.70;99.90;;;;;;4943785;29;20204;-78
2023/11/29 09:31:11;;;;;;;11.87;11.17;;;2.80;99.90;;;;;;4943386;29;20203;-79
2023/11/29 09:33:38;;;;;;;13.03;12.03;;;2.90;99.90;;;;;;4927129;29;20222;-79
2023/11/29 09:36:07;;;;;;;12.70;11.90;;;3.00;99.90;;;;;;4922711;29;20663;-79
2023/11/29 09:38:34;;;;;;;11.73;11.03;;;3.10;99.90;;;;;;4946852;29;20203;-79
2023/11/29 09:41:01;;;;;;;11.20;10.40;;;3.20;99.90;;;;;;4941977;29;20294;-79
2023/11/29 09:43:28;;;;;;;11.33;10.63;;;3.20;99.90;;;;;;4939748;29;20223;-79
2023/11/29 09:45:55;;;;;;;11.80;11.10;;;3.20;99.90;;;;;;4927283;29;20566;-79
2023/11/29 09:48:22;;;;;;;12.20;11.40;;;3.20;99.90;;;;;;4925213;29;20262;-79
2023/11/29 09:50:49;;;;;;;11.83;11.03;;;3.20;99.90;;;;;;4924900;29;20207;-80
2023/11/29 09:53:17;;;;;;;12.63;11.70;;;3.10;99.90;;;;;;4943365;29;20255;-79
2023/11/29 09:55:44;;;;;;;13.37;12.37;;;3.10;99.90;;;;;;4943103;29;20211;-79
2023/11/29 09:58:11;;;;;;;12.17;11.37;;;3.10;99.90;;;;;;4943288;28;20641;-79
2023/11/29 10:00:39;;;;;;;12.23;11.30;;;3.10;99.90;;;;;;4926815;29;20218;-79
2023/11/29 10:03:13;;;;;;;12.80;11.97;;;3.20;99.90;;;;;;4946203;29;20195;-79
2023/11/29 10:05:45;;;;;;;12.77;11.87;;;3.40;99.90;;;;;;4922671;29;20227;-79
2023/11/29 10:08:15;;;;;;;12.17;11.20;;;3.50;99.90;;;;;;4945942;29;20246;-79
2023/11/29 10:10:44;;;;;;;12.13;11.43;;;3.60;99.90;;;;;;4942464;29;20229;-79
2023/11/29 10:13:11;;;;;;;12.17;11.37;;;3.70;99.90;;;;;;4922464;29;20203;-79
2023/11/29 10:15:38;;;;;;;12.43;11.63;;;3.80;99.90;;;;;;4926432;29;20259;-79
2023/11/29 10:18:05;;;;;;;12.50;11.70;;;3.90;99.90;;;;;;4944239;29;20210;-78
2023/11/29 10:20:32;;;;;;;13.27;12.37;;;3.90;99.90;;;;;;4945251;29;20223;-79
2023/11/29 10:22:59;;;;;;;12.97;12.13;;;4.00;99.90;;;;;;4945766;28;20207;-79
2023/11/29 10:25:25;;;;;;;13.23;12.37;;;4.00;99.90;;;;;;4942590;29;20219;-79
2023/11/29 10:27:54;;;;;;;12.90;12.00;;;4.10;99.90;;;;;;4926626;29;20242;-79
2023/11/29 10:30:20;;;;;;;12.50;11.70;;;4.10;99.90;;;;;;4940700;29;20187;-79
2023/11/29 10:32:48;;;;;;;12.53;11.73;;;4.00;99.90;;;;;;4925171;29;20207;-78
2023/11/29 10:35:19;;;;;;;12.40;11.70;;;4.00;99.90;;;;;;4924434;29;20291;-80
2023/11/29 10:37:53;;;;;;;13.20;12.30;;;3.90;99.90;;;;;;4934977;29;20620;-80
2023/11/29 10:40:20;;;;;;;12.40;11.57;;;4.00;99.90;;;;;;4922882;29;20214;-83
2023/11/29 10:42:53;;;;;;;12.40;11.60;;;4.00;99.90;;;;;;4935241;29;20204;-81
2023/11/29 10:45:22;;;;;;;12.93;12.07;;;4.00;99.90;;;;;;4932492;29;20230;-81
2023/11/29 10:47:54;;;;;;;12.60;11.80;;;4.10;99.90;;;;;;4922797;29;20207;-84
2023/11/29 10:50:22;;;;;;;12.30;11.50;;;4.10;99.90;;;;;;4927633;29;20203;-82
2023/11/29 10:52:50;;;;;;;12.43;11.63;;;4.20;99.90;;;;;;4910699;29;20211;-82
2023/11/29 10:55:18;;;;;;;13.10;12.30;;;4.20;99.90;;;;;;4918601;29;20223;-82
2023/11/29 10:57:50;;;;;;;13.60;12.70;;;4.10;99.90;;;;;;4939068;29;20206;-80
2023/11/29 11:00:25;;;;;;;13.63;12.73;;;4.20;99.90;;;;;;4923560;29;20213;-80
2023/11/29 11:02:52;;;;;;;13.10;12.10;;;4.20;99.90;;;;;;4918392;29;20213;-82
2023/11/29 11:05:24;;;;;;;13.23;12.33;;;4.20;99.90;;;;;;4935052;29;20609;-80
2023/11/29 11:07:52;;;;;;;13.27;12.37;;;4.20;99.90;;;;;;4935502;29;20210;-81
2023/11/29 11:10:23;;;;;;;12.60;11.70;;;4.30;99.90;;;;;;4917875;29;20754;-83
2023/11/29 11:12:51;;;;;;;12.50;11.70;;;4.30;99.90;;;;;;4931102;29;20223;-82
2023/11/29 11:15:23;;;;;;;12.70;11.90;;;4.30;99.90;;;;;;4940212;29;20223;-81
2023/11/29 11:18:25;;;;;;;12.90;12.07;;;4.40;99.90;;;;;;4924788;29;20210;-84
2023/11/29 11:20:55;;;;;;;13.47;12.57;;;4.40;99.90;;;;;;4938607;29;20218;-81
2023/11/29 11:23:23;;;;;;;13.13;12.23;;;4.40;99.90;;;;;;4942779;28;20667;-81
2023/11/29 11:25:54;;;;;;;12.73;11.87;;;4.40;99.90;;;;;;4918610;29;20214;-84
2023/11/29 11:28:28;;;;;;;12.83;11.87;;;4.40;99.90;;;;;;4935125;29;20200;-82
2023/11/29 11:30:56;;;;;;;12.80;11.90;;;4.50;99.90;;;;;;4924588;29;20202;-82
2023/11/29 11:33:24;;;;;;;12.97;12.07;;;4.50;99.90;;;;;;4930102;29;20274;-83
2023/11/29 11:35:51;;;;;;;12.47;11.67;;;4.50;99.90;;;;;;4938707;29;20199;-82
2023/11/29 11:38:19;;;;;;;13.17;12.37;;;4.50;99.90;;;;;;4943202;29;20209;-82
2023/11/29 11:40:47;;;;;;;13.20;12.30;;;4.60;99.90;;;;;;4919511;29;20231;-80
2023/11/29 11:43:16;;;;;;;13.70;12.70;;;4.50;99.90;;;;;;4924675;29;20318;-79
2023/11/29 11:45:46;;;;;;;13.70;12.80;;;4.40;99.90;;;;;;4943275;29;20254;-79
2023/11/29 11:48:13;;;;;;;13.27;12.47;;;4.40;99.90;;;;;;4925900;29;20221;-78
2023/11/29 11:50:41;;;;;;;13.80;12.80;;;4.40;99.90;;;;;;4929450;29;20192;-79
2023/11/29 11:53:07;;;;;;;13.47;12.57;;;4.30;99.90;;;;;;4921964;29;20236;-79
2023/11/29 11:55:38;;;;;;;14.47;13.37;;;4.20;99.90;;;;;;4923060;29;20736;-79
2023/11/29 11:58:06;;;;;;;14.47;13.47;;;4.20;99.90;;;;;;4923501;29;20207;-79
2023/11/29 12:00:32;;;;;;;14.53;13.50;;;4.10;99.90;;;;;;4927725;29;20223;-79
2023/11/29 12:03:00;;;;;;;13.53;12.53;;;4.00;99.90;;;;;;4945898;29;20203;-79
2023/11/29 12:05:27;;;;;;;12.57;11.77;;;3.90;99.90;;;;;;4941714;29;20214;-79
2023/11/29 12:07:56;;;;;;;13.17;12.27;;;3.90;99.90;;;;;;4945714;29;20205;-81
2023/11/29 12:10:23;;;;;;;13.50;12.50;;;3.80;99.90;;;;;;4924743;29;20215;-79
2023/11/29 12:12:50;;;;;;;13.00;12.10;;;3.80;99.90;;;;;;4941901;29;20306;-79
2023/11/29 12:15:17;;;;;;;13.13;12.20;;;3.80;99.90;;;;;;4929782;29;20286;-80
2023/11/29 12:17:45;;;;;;;13.53;12.50;;;3.70;99.90;;;;;;4930080;29;20195;-80
2023/11/29 12:20:13;;;;;;;13.97;12.77;;;3.70;99.90;;;;;;4931241;29;20644;-79
2023/11/29 12:22:42;;;;;;;12.80;11.90;;;3.80;99.90;;;;;;4923989;29;20223;-80
2023/11/29 12:25:19;;;;;;;13.20;12.30;;;3.80;99.90;;;;;;4944642;29;20254;-79
2023/11/29 12:27:47;;;;;;;14.77;13.67;;;3.80;99.90;;;;;;4940863;29;20195;-79
2023/11/29 12:30:14;;;;;;;13.20;12.20;;;3.80;99.90;;;;;;4947131;29;20627;-80
2023/11/29 12:32:41;;;;;;;14.63;13.47;;;3.90;99.90;;;;;;4929350;29;20619;-79
2023/11/29 12:35:10;;;;;;;13.60;12.57;;;3.90;99.90;;;;;;4947589;29;20693;-80
2023/11/29 12:37:42;;;;;;;13.20;12.40;;;3.90;99.90;;;;;;4928918;29;20215;-80